THY4JV LTFM-LTAU
Flight info
| Callsign | THY4JV |
|---|---|
| Flight time | 1h 2m |
| Altitude | 35000 |
| Route | VICEN UT57 VEVUD UT341 BAG UL614 GOBIT UG8 MARTI UW76 SARIZ |
| Aircraft | A320/M-SDE3FGHIRWY/LB1 |
Departure
| Time | 2026-05-04 10:39 |
|---|---|
| Airport | İstanbul Airport (LTFM) |
Arrival
| Time | 2026-05-04 11:42 |
|---|---|
| Airport | Kayseri Erkilet International Airport (LTAU) |
| Time | Latitude | Longitude | Altitude | Speed | Heading |
|---|---|---|---|---|---|
| 2026-05-04 09:56 | 41.26021 | 28.74946 | 312 ft | 0 kts | 250° |
| 2026-05-04 09:57 | 41.26021 | 28.74944 | 312 ft | 0 kts | 250° |
| 2026-05-04 10:29 | 41.26024 | 28.74955 | 341 ft | 4 kts | 251° |
| 2026-05-04 10:29 | 41.26032 | 28.74989 | 341 ft | 4 kts | 256° |
| 2026-05-04 10:29 | 41.26037 | 28.75024 | 312 ft | 4 kts | 273° |
| 2026-05-04 10:29 | 41.26030 | 28.75051 | 313 ft | 3 kts | 335° |
| 2026-05-04 10:30 | 41.26027 | 28.75053 | 313 ft | 0 kts | 340° |
| 2026-05-04 10:34 | 41.26037 | 28.75049 | 312 ft | 3 kts | 341° |
| 2026-05-04 10:34 | 41.26063 | 28.75038 | 313 ft | 5 kts | 343° |
| 2026-05-04 10:34 | 41.26106 | 28.75021 | 313 ft | 7 kts | 338° |
| 2026-05-04 10:34 | 41.26161 | 28.74992 | 313 ft | 10 kts | 338° |
| 2026-05-04 10:35 | 41.26219 | 28.75009 | 312 ft | 6 kts | 46° |
| 2026-05-04 10:35 | 41.26238 | 28.75064 | 313 ft | 8 kts | 82° |
| 2026-05-04 10:35 | 41.26239 | 28.75144 | 313 ft | 9 kts | 88° |
| 2026-05-04 10:35 | 41.26241 | 28.75235 | 314 ft | 11 kts | 89° |
| 2026-05-04 10:36 | 41.26243 | 28.75342 | 314 ft | 12 kts | 89° |
| 2026-05-04 10:36 | 41.26245 | 28.75464 | 314 ft | 14 kts | 88° |
| 2026-05-04 10:36 | 41.26242 | 28.75602 | 315 ft | 15 kts | 90° |
| 2026-05-04 10:36 | 41.26294 | 28.75666 | 315 ft | 0 kts | 3° |
| 2026-05-04 10:37 | 41.26332 | 28.75669 | 315 ft | 27 kts | 3° |
| 2026-05-04 10:37 | 41.26788 | 28.75662 | 307 ft | 103 kts | 359° |
| 2026-05-04 10:37 | 41.27729 | 28.75651 | 311 ft | 163 kts | 359° |
| 2026-05-04 10:39 | 41.34959 | 28.79881 | 4209 ft | 234 kts | 27° |
| 2026-05-04 10:39 | 41.36372 | 28.80994 | 5091 ft | 237 kts | 27° |
| 2026-05-04 10:39 | 41.37725 | 28.82275 | 5973 ft | 246 kts | 45° |
| 2026-05-04 10:40 | 41.38445 | 28.84410 | 6685 ft | 267 kts | 75° |
| 2026-05-04 10:40 | 41.38615 | 28.86920 | 7451 ft | 276 kts | 83° |
| 2026-05-04 10:40 | 41.38607 | 28.89496 | 8287 ft | 282 kts | 90° |
| 2026-05-04 10:40 | 41.37958 | 28.92011 | 9074 ft | 298 kts | 119° |
| 2026-05-04 10:41 | 41.36433 | 28.93946 | 9870 ft | 312 kts | 148° |
| 2026-05-04 10:41 | 41.34320 | 28.94778 | 10489 ft | 326 kts | 174° |
| 2026-05-04 10:41 | 41.31974 | 28.94939 | 10687 ft | 349 kts | 178° |
| 2026-05-04 10:41 | 41.29481 | 28.94984 | 11035 ft | 364 kts | 179° |
| 2026-05-04 10:42 | 41.26928 | 28.95086 | 11591 ft | 371 kts | 170° |
| 2026-05-04 10:42 | 41.24494 | 28.96057 | 12190 ft | 371 kts | 149° |
| 2026-05-04 10:42 | 41.22258 | 28.97774 | 12824 ft | 373 kts | 144° |
| 2026-05-04 10:42 | 41.20024 | 28.99568 | 13517 ft | 377 kts | 143° |
| 2026-05-04 10:43 | 41.17776 | 29.01389 | 14157 ft | 380 kts | 143° |
| 2026-05-04 10:44 | 41.01656 | 29.14395 | 18363 ft | 396 kts | 145° |
| 2026-05-04 10:45 | 40.99289 | 29.16288 | 18898 ft | 399 kts | 145° |
| 2026-05-04 10:45 | 40.96904 | 29.18194 | 19435 ft | 402 kts | 145° |
| 2026-05-04 10:45 | 40.94503 | 29.20109 | 19982 ft | 404 kts | 144° |
| 2026-05-04 10:45 | 40.92086 | 29.22034 | 20498 ft | 407 kts | 144° |
| 2026-05-04 10:46 | 40.89650 | 29.23978 | 21003 ft | 410 kts | 144° |
| 2026-05-04 10:46 | 40.87199 | 29.25936 | 21489 ft | 413 kts | 144° |
| 2026-05-04 10:46 | 40.84852 | 29.28110 | 21912 ft | 411 kts | 134° |
| 2026-05-04 10:46 | 40.82858 | 29.30784 | 22342 ft | 407 kts | 123° |
| 2026-05-04 10:47 | 40.81282 | 29.33868 | 22804 ft | 403 kts | 112° |
| 2026-05-04 10:47 | 40.80156 | 29.37233 | 23262 ft | 399 kts | 102° |
| 2026-05-04 10:47 | 40.79416 | 29.40750 | 23702 ft | 398 kts | 98° |
| 2026-05-04 10:47 | 40.78714 | 29.44294 | 24102 ft | 400 kts | 99° |
| 2026-05-04 10:49 | 40.73321 | 29.69243 | 27160 ft | 409 kts | 101° |
| 2026-05-04 10:49 | 40.72512 | 29.72842 | 27557 ft | 410 kts | 101° |
| 2026-05-04 10:50 | 40.71703 | 29.76456 | 27945 ft | 411 kts | 100° |
| 2026-05-04 10:51 | 40.65958 | 30.02081 | 30601 ft | 423 kts | 101° |
| 2026-05-04 10:52 | 40.65116 | 30.05789 | 30957 ft | 423 kts | 101° |
| 2026-05-04 10:52 | 40.64273 | 30.09492 | 31377 ft | 422 kts | 101° |
| 2026-05-04 10:52 | 40.63717 | 30.11939 | 31682 ft | 421 kts | 101° |
| 2026-05-04 10:54 | 40.57789 | 30.37941 | 34219 ft | 424 kts | 103° |
| 2026-05-04 10:54 | 40.56938 | 30.41658 | 34514 ft | 426 kts | 103° |
| 2026-05-04 10:56 | 40.50847 | 30.67998 | 35001 ft | 431 kts | 104° |
| 2026-05-04 10:56 | 40.49972 | 30.71761 | 35002 ft | 431 kts | 104° |
| 2026-05-04 10:57 | 40.48206 | 30.79302 | 34991 ft | 431 kts | 104° |
| 2026-05-04 10:57 | 40.46442 | 30.86830 | 34992 ft | 432 kts | 105° |
| 2026-05-04 10:58 | 40.44673 | 30.94370 | 34998 ft | 432 kts | 104° |
| 2026-05-04 10:58 | 40.42903 | 31.01917 | 34989 ft | 433 kts | 104° |
| 2026-05-04 10:59 | 40.41116 | 31.09461 | 34971 ft | 433 kts | 105° |
| 2026-05-04 10:59 | 40.39337 | 31.16961 | 34971 ft | 434 kts | 105° |
| 2026-05-04 11:00 | 40.37702 | 31.24558 | 34976 ft | 432 kts | 99° |
| 2026-05-04 11:02 | 40.32678 | 31.55428 | 34936 ft | 434 kts | 99° |
| 2026-05-04 11:05 | 40.21929 | 32.13474 | 34870 ft | 441 kts | 104° |
| 2026-05-04 11:06 | 40.20240 | 32.21148 | 34855 ft | 442 kts | 104° |
| 2026-05-04 11:06 | 40.18559 | 32.28896 | 34851 ft | 443 kts | 104° |
| 2026-05-04 11:10 | 40.06460 | 32.83169 | 34847 ft | 446 kts | 107° |
| 2026-05-04 11:12 | 39.97456 | 33.13339 | 34833 ft | 446 kts | 109° |
| 2026-05-04 11:12 | 39.95242 | 33.20881 | 34834 ft | 446 kts | 110° |
| 2026-05-04 11:13 | 39.93007 | 33.28421 | 34834 ft | 446 kts | 110° |
| 2026-05-04 11:13 | 39.90756 | 33.35956 | 34819 ft | 446 kts | 110° |
| 2026-05-04 11:14 | 39.90390 | 33.37180 | 34820 ft | 446 kts | 110° |
| 2026-05-04 11:16 | 39.80604 | 33.74012 | 34811 ft | 445 kts | 103° |
| 2026-05-04 11:16 | 39.79020 | 33.81807 | 34803 ft | 446 kts | 104° |
| 2026-05-04 11:17 | 39.77365 | 33.89585 | 34799 ft | 446 kts | 109° |
| 2026-05-04 11:19 | 39.68781 | 34.19862 | 34791 ft | 448 kts | 110° |
| 2026-05-04 11:19 | 39.66614 | 34.27443 | 34789 ft | 448 kts | 110° |
| 2026-05-04 11:20 | 39.65531 | 34.31230 | 34510 ft | 447 kts | 111° |
| 2026-05-04 11:20 | 39.64448 | 34.35003 | 34016 ft | 445 kts | 111° |
| 2026-05-04 11:20 | 39.63365 | 34.38760 | 33471 ft | 444 kts | 111° |
| 2026-05-04 11:20 | 39.62288 | 34.42497 | 32986 ft | 440 kts | 110° |
| 2026-05-04 11:22 | 39.54976 | 34.67811 | 29686 ft | 417 kts | 112° |
| 2026-05-04 11:22 | 39.53959 | 34.71306 | 29223 ft | 412 kts | 112° |
| 2026-05-04 11:23 | 39.52954 | 34.74757 | 28817 ft | 407 kts | 112° |
| 2026-05-04 11:23 | 39.51959 | 34.78165 | 28404 ft | 402 kts | 112° |
| 2026-05-04 11:24 | 39.46217 | 34.97786 | 26006 ft | 379 kts | 114° |
| 2026-05-04 11:25 | 39.45284 | 35.00962 | 25606 ft | 376 kts | 114° |
| 2026-05-04 11:25 | 39.44356 | 35.04117 | 25194 ft | 374 kts | 114° |
| 2026-05-04 11:25 | 39.43432 | 35.07247 | 24778 ft | 372 kts | 114° |
| 2026-05-04 11:26 | 39.41563 | 35.13428 | 23933 ft | 365 kts | 120° |
| 2026-05-04 11:27 | 39.27979 | 35.24922 | 21098 ft | 327 kts | 159° |
| 2026-05-04 11:28 | 39.25888 | 35.26056 | 20713 ft | 325 kts | 159° |
| 2026-05-04 11:28 | 39.23815 | 35.27182 | 20320 ft | 322 kts | 160° |
| 2026-05-04 11:28 | 39.21765 | 35.28300 | 19916 ft | 319 kts | 160° |
| 2026-05-04 11:28 | 39.19726 | 35.29413 | 19525 ft | 317 kts | 160° |
| 2026-05-04 11:29 | 39.17693 | 35.30517 | 19136 ft | 316 kts | 160° |
| 2026-05-04 11:29 | 39.15675 | 35.31612 | 18735 ft | 315 kts | 160° |
| 2026-05-04 11:29 | 39.13657 | 35.32702 | 18338 ft | 314 kts | 160° |
| 2026-05-04 11:29 | 39.11643 | 35.33789 | 17923 ft | 313 kts | 160° |
| 2026-05-04 11:31 | 39.01835 | 35.47334 | 15052 ft | 325 kts | 110° |
| 2026-05-04 11:33 | 38.97141 | 35.66742 | 12035 ft | 321 kts | 111° |
| 2026-05-04 11:33 | 38.96478 | 35.69469 | 11625 ft | 319 kts | 110° |
| 2026-05-04 11:33 | 38.95815 | 35.72193 | 11204 ft | 319 kts | 111° |
| 2026-05-04 11:34 | 38.95151 | 35.74911 | 10781 ft | 318 kts | 110° |
| 2026-05-04 11:34 | 38.94500 | 35.77577 | 10370 ft | 307 kts | 112° |
| 2026-05-04 11:34 | 38.93652 | 35.79978 | 10087 ft | 282 kts | 131° |
| 2026-05-04 11:34 | 38.92320 | 35.81646 | 9844 ft | 258 kts | 151° |
| 2026-05-04 11:35 | 38.90730 | 35.82510 | 9523 ft | 242 kts | 170° |
| 2026-05-04 11:35 | 38.89089 | 35.82618 | 9156 ft | 234 kts | 187° |
| 2026-05-04 11:35 | 38.87555 | 35.82049 | 8822 ft | 227 kts | 204° |
| 2026-05-04 11:35 | 38.86210 | 35.81030 | 8496 ft | 221 kts | 208° |
| 2026-05-04 11:36 | 38.84916 | 35.80017 | 8174 ft | 214 kts | 208° |
| 2026-05-04 11:36 | 38.83668 | 35.79025 | 7867 ft | 208 kts | 213° |
| 2026-05-04 11:36 | 38.82661 | 35.77727 | 7641 ft | 205 kts | 232° |
| 2026-05-04 11:36 | 38.82051 | 35.76104 | 7411 ft | 200 kts | 249° |
| 2026-05-04 11:37 | 38.81735 | 35.74420 | 7147 ft | 189 kts | 252° |
| 2026-05-04 11:37 | 38.81432 | 35.72812 | 6904 ft | 182 kts | 251° |
| 2026-05-04 11:37 | 38.81140 | 35.71263 | 6670 ft | 175 kts | 251° |
| 2026-05-04 11:37 | 38.80864 | 35.69796 | 6445 ft | 169 kts | 251° |
| 2026-05-04 11:38 | 38.80586 | 35.68321 | 6234 ft | 168 kts | 249° |
| 2026-05-04 11:38 | 38.80319 | 35.66899 | 6010 ft | 164 kts | 248° |
| 2026-05-04 11:38 | 38.80052 | 35.65483 | 5788 ft | 163 kts | 251° |
| 2026-05-04 11:38 | 38.79791 | 35.64096 | 5585 ft | 156 kts | 252° |
| 2026-05-04 11:39 | 38.79543 | 35.62775 | 5378 ft | 150 kts | 249° |
| 2026-05-04 11:39 | 38.79298 | 35.61481 | 5176 ft | 148 kts | 250° |
| 2026-05-04 11:40 | 38.77933 | 35.54266 | 3995 ft | 148 kts | 250° |
| 2026-05-04 11:41 | 38.77694 | 35.53003 | 3812 ft | 148 kts | 249° |
| 2026-05-04 11:41 | 38.77453 | 35.51728 | 3605 ft | 147 kts | 251° |
| 2026-05-04 11:41 | 38.77222 | 35.50490 | 3466 ft | 129 kts | 256° |
| 2026-05-04 11:41 | 38.77048 | 35.49526 | 3468 ft | 97 kts | 257° |
| 2026-05-04 11:42 | 38.76918 | 35.48886 | 3466 ft | 49 kts | 262° |
| 2026-05-04 11:42 | 38.76872 | 35.48656 | 3467 ft | 13 kts | 231° |
| 2026-05-04 11:42 | 38.76795 | 35.48628 | 3467 ft | 12 kts | 170° |
| 2026-05-04 11:42 | 38.76783 | 35.48630 | 3468 ft | 0 kts | 170° |
| 2026-05-04 11:43 | 38.76778 | 35.48631 | 3468 ft | 2 kts | 170° |
| 2026-05-04 11:44 | 38.76756 | 35.48636 | 3468 ft | 5 kts | 170° |
| 2026-05-04 11:44 | 38.76725 | 35.48629 | 3468 ft | 2 kts | 243° |
| 2026-05-04 11:44 | 38.76722 | 35.48594 | 3468 ft | 5 kts | 259° |
| 2026-05-04 11:44 | 38.76715 | 35.48546 | 3467 ft | 6 kts | 259° |
| 2026-05-04 11:45 | 38.76704 | 35.48505 | 3470 ft | 0 kts | 241° |